createdAt,value
2023-02-11T00:01:56.814Z,60.59
2023-02-11T00:04:23.808Z,60.10
2023-02-11T00:06:50.917Z,60.21
2023-02-11T00:09:17.790Z,60.08
2023-02-11T00:11:44.667Z,60.57
2023-02-11T00:14:12.251Z,60.81
2023-02-11T00:16:40.837Z,60.31
2023-02-11T00:19:07.785Z,61.82
2023-02-11T00:21:36.292Z,62.09
2023-02-11T00:24:03.468Z,61.60
2023-02-11T00:26:34.342Z,61.17
2023-02-11T00:29:02.332Z,60.77
2023-02-11T00:31:29.723Z,61.26
2023-02-11T00:33:56.653Z,61.41
2023-02-11T00:36:26.045Z,60.73
2023-02-11T00:38:55.018Z,60.92
2023-02-11T00:41:23.031Z,60.13
2023-02-11T00:43:50.928Z,59.83
2023-02-11T00:46:17.903Z,59.92
2023-02-11T00:48:44.977Z,59.92
2023-02-11T00:51:12.724Z,59.46
2023-02-11T00:53:39.892Z,59.87
2023-02-11T00:56:07.991Z,61.22
2023-02-11T00:58:35.516Z,60.98
2023-02-11T01:01:02.612Z,60.69
2023-02-11T01:03:29.588Z,60.27
2023-02-11T01:05:56.725Z,60.17
2023-02-11T01:08:23.707Z,59.80
2023-02-11T01:11:14.907Z,59.64
2023-02-11T01:13:42.621Z,59.57
2023-02-11T01:16:11.180Z,59.52
2023-02-11T01:18:38.648Z,60.82
2023-02-11T01:21:06.094Z,61.62
2023-02-11T01:23:33.049Z,61.65
2023-02-11T01:26:00.142Z,61.20
2023-02-11T01:28:29.373Z,60.96
2023-02-11T01:30:56.733Z,60.92
2023-02-11T01:33:24.818Z,61.03
2023-02-11T01:35:52.422Z,61.56
2023-02-11T01:38:25.844Z,61.18
2023-02-11T01:40:56.265Z,60.92
2023-02-11T01:43:25.530Z,60.95
2023-02-11T01:46:02.713Z,61.81
2023-02-11T01:48:43.458Z,61.69
2023-02-11T01:51:18.687Z,60.77
2023-02-11T01:54:06.684Z,60.57
2023-02-11T01:56:56.391Z,60.61
2023-02-11T01:59:29.050Z,61.95
2023-02-11T02:02:01.493Z,63.61
2023-02-11T02:04:33.664Z,63.84
2023-02-11T02:07:06.934Z,63.76
2023-02-11T02:09:41.377Z,63.69
2023-02-11T02:12:09.243Z,63.51
2023-02-11T02:14:40.892Z,62.64
2023-02-11T02:17:16.676Z,62.02
2023-02-11T02:20:09.457Z,61.88
2023-02-11T02:23:04.312Z,61.75
2023-02-11T02:26:00.246Z,61.24
2023-02-11T02:28:58.695Z,60.65
2023-02-11T02:31:33.831Z,60.62
2023-02-11T02:34:16.121Z,60.15
2023-02-11T02:36:55.183Z,60.98
2023-02-11T02:39:27.727Z,60.70
2023-02-11T02:41:57.016Z,60.37
2023-02-11T02:44:24.412Z,60.19
2023-02-11T02:46:51.592Z,61.59
2023-02-11T02:49:19.701Z,61.93
2023-02-11T02:52:10.102Z,62.44
2023-02-11T02:54:37.304Z,62.34
2023-02-11T02:57:49.252Z,62.16
2023-02-11T03:00:25.293Z,62.71
2023-02-11T03:03:16.409Z,62.33
2023-02-11T03:05:43.248Z,61.50
2023-02-11T03:08:16.938Z,61.25
2023-02-11T03:10:51.551Z,60.98
2023-02-11T03:13:22.728Z,60.85
2023-02-11T03:15:53.775Z,60.56
2023-02-11T03:18:26.427Z,61.01
2023-02-11T03:20:55.108Z,60.48
2023-02-11T03:23:36.915Z,61.27
2023-02-11T03:26:12.622Z,61.58
2023-02-11T03:29:04.009Z,62.21
2023-02-11T03:31:37.014Z,61.73
2023-02-11T03:34:12.862Z,61.02
2023-02-11T03:37:02.788Z,61.77
2023-02-11T03:39:36.218Z,61.58
2023-02-11T03:42:05.661Z,60.77
2023-02-11T03:44:42.196Z,60.85
2023-02-11T03:47:12.700Z,60.87
2023-02-11T03:49:42.218Z,61.69
2023-02-11T03:52:11.621Z,61.26
2023-02-11T03:54:43.009Z,62.10
2023-02-11T03:57:10.206Z,62.20
2023-02-11T03:59:55.575Z,63.21
2023-02-11T04:02:30.508Z,63.28
2023-02-11T04:04:58.259Z,62.26
2023-02-11T04:07:25.799Z,63.04
2023-02-11T04:09:53.116Z,62.94
2023-02-11T04:12:20.132Z,65.31
2023-02-11T04:14:47.023Z,64.09
2023-02-11T04:17:14.058Z,63.87
2023-02-11T04:19:41.339Z,63.83
2023-02-11T04:22:08.941Z,66.42
2023-02-11T04:24:35.863Z,63.49
2023-02-11T04:27:02.944Z,63.07
2023-02-11T04:29:30.149Z,66.02
2023-02-11T04:31:57.203Z,65.34
2023-02-11T04:34:24.782Z,63.74
2023-02-11T04:36:51.770Z,63.12
2023-02-11T04:39:19.022Z,63.04
2023-02-11T04:41:46.055Z,63.35
2023-02-11T04:44:13.004Z,62.84
2023-02-11T04:46:39.868Z,62.32
2023-02-11T04:49:06.863Z,61.81
2023-02-11T04:51:33.851Z,61.34
2023-02-11T04:54:00.829Z,61.09
2023-02-11T04:56:29.291Z,60.85
2023-02-11T04:58:56.275Z,60.42
2023-02-11T05:01:23.622Z,60.29
2023-02-11T05:03:51.375Z,60.67
2023-02-11T05:06:18.494Z,60.53
2023-02-11T05:08:45.694Z,60.11
2023-02-11T05:11:18.828Z,59.78
2023-02-11T05:13:46.648Z,59.84
2023-02-11T05:16:15.058Z,59.94
2023-02-11T05:18:43.631Z,60.21
2023-02-11T05:21:14.092Z,60.19
2023-02-11T05:23:41.511Z,60.37
2023-02-11T05:26:09.264Z,60.84
2023-02-11T05:28:36.977Z,60.33
2023-02-11T05:31:04.410Z,60.87
2023-02-11T05:33:32.214Z,60.64
2023-02-11T05:36:04.729Z,60.43
2023-02-11T05:38:31.941Z,60.45
2023-02-11T05:40:58.971Z,60.64
2023-02-11T05:43:26.096Z,60.78
2023-02-11T05:45:53.520Z,61.35
2023-02-11T05:48:20.577Z,60.71
2023-02-11T05:50:47.571Z,60.87
2023-02-11T05:53:14.524Z,61.08
2023-02-11T05:55:41.717Z,62.04
2023-02-11T05:58:08.811Z,62.01
2023-02-11T06:00:36.140Z,61.70
2023-02-11T06:03:04.752Z,62.06
2023-02-11T06:05:32.374Z,62.49
2023-02-11T06:07:59.500Z,63.53
2023-02-11T06:10:26.612Z,62.96
2023-02-11T06:12:53.825Z,64.09
2023-02-11T06:15:21.227Z,65.23
2023-02-11T06:17:48.189Z,67.04
2023-02-11T06:20:15.685Z,66.77
2023-02-11T06:22:42.585Z,67.03
2023-02-11T06:25:11.222Z,65.33
2023-02-11T06:27:40.030Z,65.62
2023-02-11T06:30:07.850Z,67.38
2023-02-11T06:32:43.935Z,68.01
2023-02-11T06:35:12.698Z,68.92
2023-02-11T06:37:40.833Z,68.16
2023-02-11T06:40:08.054Z,66.37
2023-02-11T06:42:38.391Z,64.78
2023-02-11T06:45:21.533Z,63.56
2023-02-11T06:48:20.038Z,60.25
2023-02-11T06:50:49.336Z,57.37
2023-02-11T06:53:28.825Z,55.36
2023-02-11T06:56:20.150Z,53.99
2023-02-11T06:59:08.622Z,52.93
2023-02-11T07:01:52.414Z,51.83
2023-02-11T07:07:39.758Z,50.09
2023-02-11T07:10:24.122Z,50.06
2023-02-11T07:16:57.501Z,49.29
2023-02-11T07:20:03.335Z,47.81
2023-02-11T07:23:58.106Z,47.02
2023-02-11T07:26:53.463Z,48.16
2023-02-11T07:35:33.077Z,47.51
2023-02-11T07:38:00.123Z,47.12
2023-02-11T07:40:31.841Z,48.93
2023-02-11T07:43:03.773Z,51.75
2023-02-11T07:45:30.795Z,50.44
2023-02-11T07:47:58.038Z,50.93
2023-02-11T07:50:24.916Z,51.67
2023-02-11T07:52:52.772Z,51.42
2023-02-11T07:55:19.604Z,51.87
2023-02-11T07:57:46.502Z,54.92
2023-02-11T08:00:14.196Z,55.50
2023-02-11T08:02:41.216Z,56.46
2023-02-11T08:05:08.328Z,56.60
2023-02-11T08:07:35.184Z,56.87
2023-02-11T08:10:02.411Z,58.01
2023-02-11T08:12:29.350Z,58.37
2023-02-11T08:14:56.645Z,57.36
2023-02-11T08:17:23.492Z,57.67
2023-02-11T08:19:50.425Z,57.58
2023-02-11T08:22:17.297Z,59.27
2023-02-11T08:24:44.289Z,59.21
2023-02-11T08:27:11.141Z,59.97
2023-02-11T08:29:38.001Z,60.54
2023-02-11T08:32:05.162Z,59.06
2023-02-11T08:34:32.092Z,57.73
2023-02-11T08:36:58.966Z,58.74
2023-02-11T08:39:28.349Z,61.49
2023-02-11T08:41:57.018Z,59.02
2023-02-11T08:44:24.477Z,58.35
2023-02-11T08:46:51.838Z,57.54
2023-02-11T08:49:18.976Z,57.99
2023-02-11T08:51:46.347Z,57.61
2023-02-11T08:54:14.523Z,57.60
2023-02-11T08:56:41.667Z,59.36
2023-02-11T08:59:11.441Z,58.84
2023-02-11T09:01:38.138Z,57.77
2023-02-11T09:04:05.699Z,61.37
2023-02-11T09:06:32.737Z,60.64
2023-02-11T09:08:59.937Z,58.94
2023-02-11T09:11:30.422Z,57.41
2023-02-11T09:13:57.811Z,56.23
2023-02-11T09:16:28.438Z,55.99
2023-02-11T09:18:57.776Z,53.48
2023-02-11T09:21:25.021Z,52.96
2023-02-11T09:23:51.935Z,52.54
2023-02-11T09:26:22.540Z,51.30
2023-02-11T09:28:50.411Z,50.86
2023-02-11T09:31:20.882Z,51.45
2023-02-11T09:33:50.560Z,53.21
2023-02-11T09:36:23.387Z,50.90
2023-02-11T09:38:50.668Z,51.10
2023-02-11T09:41:23.276Z,48.83
2023-02-11T09:43:53.371Z,50.79
2023-02-11T09:46:22.030Z,52.40
2023-02-11T09:48:52.204Z,50.96
2023-02-11T09:51:26.820Z,50.30
2023-02-11T09:54:00.625Z,55.03
2023-02-11T09:56:28.780Z,53.48
2023-02-11T09:58:55.704Z,50.39
2023-02-11T10:01:34.730Z,49.52
2023-02-11T10:04:23.208Z,49.91
2023-02-11T10:06:57.851Z,49.52
2023-02-11T10:09:33.564Z,50.92
2023-02-11T10:12:28.229Z,52.57
2023-02-11T10:15:06.148Z,50.28
2023-02-11T10:18:05.415Z,51.39
2023-02-11T10:20:39.315Z,52.11
2023-02-11T10:23:15.997Z,51.91
2023-02-11T10:25:50.990Z,52.77
2023-02-11T10:28:20.916Z,51.76
2023-02-11T10:30:56.760Z,52.24
2023-02-11T10:33:26.456Z,52.50
2023-02-11T10:35:53.405Z,55.23
2023-02-11T10:38:20.455Z,57.05
2023-02-11T10:40:47.385Z,58.08
2023-02-11T10:43:17.188Z,56.17
2023-02-11T10:45:53.883Z,56.32
2023-02-11T10:48:40.771Z,57.01
2023-02-11T10:51:14.578Z,57.46
2023-02-11T10:53:42.260Z,57.75
2023-02-11T10:56:13.019Z,57.03
2023-02-11T10:58:54.578Z,58.30
2023-02-11T11:01:24.746Z,57.85
2023-02-11T11:03:53.212Z,57.01
2023-02-11T11:06:32.709Z,56.25
2023-02-11T11:08:59.884Z,54.83
2023-02-11T11:11:27.618Z,54.28
2023-02-11T11:13:54.359Z,55.00
2023-02-11T11:16:26.305Z,52.79
2023-02-11T11:19:14.775Z,50.39
2023-02-11T11:21:51.044Z,49.27
2023-02-11T11:24:20.823Z,46.51
2023-02-11T11:26:53.908Z,43.47
2023-02-11T11:29:35.939Z,44.29
2023-02-11T11:32:27.859Z,43.02
2023-02-11T11:34:57.326Z,43.23
2023-02-11T11:37:28.209Z,44.19
2023-02-11T11:40:24.146Z,45.05
2023-02-11T11:43:23.061Z,44.39
2023-02-11T11:45:58.845Z,42.50
2023-02-11T11:48:31.612Z,38.77
2023-02-11T11:51:11.948Z,38.97
2023-02-11T11:53:48.558Z,38.15
2023-02-11T11:56:39.930Z,36.14
2023-02-11T11:59:18.803Z,37.26
2023-02-11T12:02:08.573Z,34.96
2023-02-11T12:04:35.407Z,34.76
2023-02-11T12:07:26.057Z,35.77
2023-02-11T12:10:21.904Z,35.48
2023-02-11T12:12:57.616Z,35.02
2023-02-11T12:15:39.596Z,36.46
2023-02-11T12:18:12.637Z,34.38
2023-02-11T12:21:13.584Z,35.62
2023-02-11T12:24:07.864Z,35.87
2023-02-11T12:27:03.643Z,34.32
2023-02-11T12:29:37.937Z,35.83
2023-02-11T12:32:22.932Z,35.98
2023-02-11T12:35:00.856Z,34.81
2023-02-11T12:37:49.389Z,36.32
2023-02-11T12:40:53.301Z,36.31
2023-02-11T12:43:34.088Z,35.57
2023-02-11T12:46:15.242Z,35.21
2023-02-11T12:48:55.560Z,34.73
2023-02-11T12:51:32.250Z,34.48
2023-02-11T12:54:11.807Z,35.07
2023-02-11T12:56:59.576Z,33.96
2023-02-11T12:59:44.027Z,33.66
2023-02-11T13:02:42.214Z,33.11
2023-02-11T13:05:20.150Z,33.23
2023-02-11T13:07:49.786Z,32.29
2023-02-11T13:10:34.347Z,32.04
2023-02-11T13:13:17.809Z,31.00
2023-02-11T13:15:51.457Z,30.84
2023-02-11T13:18:32.754Z,32.78
2023-02-11T13:21:53.079Z,32.46
2023-02-11T13:24:34.645Z,32.46
2023-02-11T13:27:33.476Z,32.49
2023-02-11T13:30:04.422Z,35.12
2023-02-11T13:32:56.244Z,34.61
2023-02-11T13:35:41.326Z,34.75
2023-02-11T13:38:28.000Z,33.95
2023-02-11T13:41:21.599Z,35.05
2023-02-11T13:44:04.362Z,35.31
2023-02-11T13:47:05.080Z,33.73
2023-02-11T13:49:41.769Z,33.44
2023-02-11T13:52:37.605Z,34.71
2023-02-11T13:55:23.404Z,34.36
2023-02-11T13:58:08.656Z,34.93
2023-02-11T14:00:36.268Z,34.11
2023-02-11T14:03:30.627Z,34.85
2023-02-11T14:06:28.572Z,33.50
2023-02-11T14:09:14.634Z,33.47
2023-02-11T14:11:41.911Z,33.62
2023-02-11T14:14:29.348Z,33.96
2023-02-11T14:16:59.518Z,34.09
2023-02-11T14:19:38.553Z,34.21
2023-02-11T14:22:09.711Z,34.56
2023-02-11T14:24:36.597Z,33.74
2023-02-11T14:27:07.999Z,34.07
2023-02-11T14:29:51.489Z,33.65
2023-02-11T14:32:41.193Z,34.01
2023-02-11T14:35:39.437Z,34.33
2023-02-11T14:38:45.552Z,33.97
2023-02-11T14:41:29.950Z,33.87
2023-02-11T14:44:04.904Z,33.73
2023-02-11T14:46:36.598Z,33.70
2023-02-11T14:49:25.246Z,33.66
2023-02-11T14:51:54.629Z,33.88
2023-02-11T14:54:25.452Z,33.78
2023-02-11T14:57:15.303Z,34.02
2023-02-11T15:00:03.212Z,34.96
2023-02-11T15:02:34.824Z,34.76
2023-02-11T15:05:27.816Z,35.23
2023-02-11T15:08:03.113Z,35.95
2023-02-11T15:10:48.348Z,37.88
2023-02-11T15:13:22.276Z,37.14
2023-02-11T15:15:54.011Z,36.34
2023-02-11T15:18:24.575Z,35.83
2023-02-11T15:20:52.549Z,35.63
2023-02-11T15:23:27.301Z,38.20
2023-02-11T15:25:56.556Z,36.86
2023-02-11T15:28:30.533Z,36.13
2023-02-11T15:31:04.236Z,35.75
2023-02-11T15:33:33.141Z,36.99
2023-02-11T15:36:02.113Z,38.53
2023-02-11T15:38:30.552Z,36.99
2023-02-11T15:41:01.096Z,36.13
2023-02-11T15:43:48.646Z,37.25
2023-02-11T15:46:19.153Z,37.39
2023-02-11T15:48:50.578Z,36.91
2023-02-11T15:51:31.354Z,37.63
2023-02-11T15:54:00.935Z,37.59
2023-02-11T15:56:43.603Z,36.54
2023-02-11T15:59:47.333Z,37.42
2023-02-11T16:02:26.461Z,37.54
2023-02-11T16:05:03.946Z,37.21
2023-02-11T16:07:41.961Z,37.36
2023-02-11T16:10:36.700Z,37.37
2023-02-11T16:13:19.559Z,37.23
2023-02-11T16:15:54.398Z,39.53
2023-02-11T16:18:37.287Z,38.90
2023-02-11T16:21:08.628Z,39.20
2023-02-11T16:23:42.298Z,38.70
2023-02-11T16:26:20.835Z,39.48
2023-02-11T16:28:47.918Z,39.30
2023-02-11T16:31:15.170Z,39.51
2023-02-11T16:33:42.161Z,42.83
2023-02-11T16:36:14.068Z,41.76
2023-02-11T16:38:41.061Z,44.71
2023-02-11T16:41:09.082Z,41.62
2023-02-11T16:43:36.004Z,41.05
2023-02-11T16:46:04.174Z,41.14
2023-02-11T16:48:35.010Z,42.29
2023-02-11T16:51:02.262Z,43.13
2023-02-11T16:53:29.190Z,42.54
2023-02-11T16:55:56.080Z,44.86
2023-02-11T16:58:24.280Z,42.92
2023-02-11T17:00:52.054Z,44.19
2023-02-11T17:03:27.425Z,43.28
2023-02-11T17:05:56.143Z,42.67
2023-02-11T17:08:23.360Z,42.67
2023-02-11T17:10:50.567Z,43.98
2023-02-11T17:13:17.630Z,43.39
2023-02-11T17:15:44.581Z,42.99
2023-02-11T17:18:14.515Z,43.54
2023-02-11T17:20:42.197Z,43.01
2023-02-11T17:23:09.633Z,42.74
2023-02-11T17:25:39.352Z,42.13
2023-02-11T17:28:07.288Z,42.36
2023-02-11T17:30:34.478Z,42.32
2023-02-11T17:33:01.478Z,43.48
2023-02-11T17:35:28.384Z,45.59
2023-02-11T17:37:55.348Z,45.30
2023-02-11T17:40:22.263Z,45.04
2023-02-11T17:42:50.446Z,45.65
2023-02-11T17:45:17.567Z,46.26
2023-02-11T17:47:45.215Z,47.18
2023-02-11T17:50:12.201Z,47.00
2023-02-11T17:52:39.166Z,46.74
2023-02-11T17:55:07.046Z,45.85
2023-02-11T17:57:34.655Z,46.92
2023-02-11T18:00:01.757Z,46.94
2023-02-11T18:02:28.637Z,47.29
2023-02-11T18:04:57.695Z,47.40
2023-02-11T18:07:26.104Z,47.40
2023-02-11T18:09:53.330Z,46.67
2023-02-11T18:12:25.385Z,46.18
2023-02-11T18:14:56.854Z,46.98
2023-02-11T18:17:24.876Z,48.13
2023-02-11T18:19:55.128Z,47.41
2023-02-11T18:22:21.999Z,51.66
2023-02-11T18:24:53.266Z,48.64
2023-02-11T18:27:21.601Z,49.24
2023-02-11T18:29:48.626Z,48.63
2023-02-11T18:32:15.678Z,48.96
2023-02-11T18:34:43.225Z,49.45
2023-02-11T18:37:10.514Z,48.90
2023-02-11T18:39:37.673Z,48.81
2023-02-11T18:42:04.747Z,48.90
2023-02-11T18:44:31.770Z,49.61
2023-02-11T18:46:58.709Z,49.86
2023-02-11T18:49:25.604Z,49.33
2023-02-11T18:51:53.658Z,51.87
2023-02-11T18:54:20.504Z,51.62
2023-02-11T18:56:47.407Z,53.59
2023-02-11T18:59:16.252Z,54.00
2023-02-11T19:01:47.041Z,54.21
2023-02-11T19:04:19.150Z,53.50
2023-02-11T19:06:51.964Z,53.45
2023-02-11T19:09:20.300Z,52.57
2023-02-11T19:11:47.436Z,51.95
2023-02-11T19:14:35.509Z,51.77
2023-02-11T19:17:06.789Z,51.55
2023-02-11T19:19:36.360Z,51.90
2023-02-11T19:22:08.474Z,51.17
2023-02-11T19:24:37.537Z,51.21
2023-02-11T19:27:05.282Z,52.17
2023-02-11T19:29:35.370Z,51.97
2023-02-11T19:32:04.182Z,51.47
2023-02-11T19:34:31.152Z,51.87
2023-02-11T19:37:00.918Z,51.76
2023-02-11T19:39:27.973Z,52.21
2023-02-11T19:41:56.257Z,52.02
2023-02-11T19:44:23.160Z,51.61
2023-02-11T19:46:53.848Z,51.79
2023-02-11T19:49:24.660Z,51.43
2023-02-11T19:51:52.922Z,51.36
2023-02-11T19:54:20.888Z,51.16
2023-02-11T19:56:48.961Z,51.02
2023-02-11T19:59:17.382Z,52.44
2023-02-11T20:01:47.803Z,55.02
2023-02-11T20:04:17.513Z,52.80
2023-02-11T20:06:54.127Z,53.52
2023-02-11T20:09:21.886Z,53.77
2023-02-11T20:11:49.520Z,55.26
2023-02-11T20:14:16.457Z,57.40
2023-02-11T20:16:49.047Z,60.81
2023-02-11T20:19:20.293Z,62.22
2023-02-11T20:21:48.953Z,60.23
2023-02-11T20:24:17.357Z,59.63
2023-02-11T20:26:45.994Z,60.67
2023-02-11T20:29:13.101Z,59.06
2023-02-11T20:31:40.231Z,58.41
2023-02-11T20:34:07.344Z,57.85
2023-02-11T20:36:37.662Z,57.28
2023-02-11T20:39:06.322Z,57.76
2023-02-11T20:41:35.796Z,57.48
2023-02-11T20:44:05.956Z,60.19
2023-02-11T20:46:34.350Z,59.82
2023-02-11T20:49:01.948Z,59.62
2023-02-11T20:51:31.215Z,59.06
2023-02-11T20:53:58.871Z,59.41
2023-02-11T20:56:28.969Z,58.67
2023-02-11T20:58:58.870Z,58.09
2023-02-11T21:01:27.203Z,57.37
2023-02-11T21:03:59.112Z,56.69
2023-02-11T21:06:27.681Z,55.90
2023-02-11T21:08:54.559Z,53.87
2023-02-11T21:11:21.533Z,53.95
2023-02-11T21:13:48.824Z,52.19
2023-02-11T21:16:17.827Z,51.60
2023-02-11T21:18:44.722Z,51.60
2023-02-11T21:21:11.753Z,50.71
2023-02-11T21:23:39.993Z,51.78
2023-02-11T21:26:08.282Z,51.58
2023-02-11T21:28:36.028Z,51.00
2023-02-11T21:31:05.778Z,50.68
2023-02-11T21:33:35.701Z,49.99
2023-02-11T21:36:04.710Z,49.30
2023-02-11T21:38:32.964Z,49.27
2023-02-11T21:41:04.911Z,49.94
2023-02-11T21:43:32.272Z,50.09
2023-02-11T21:45:59.435Z,49.75
2023-02-11T21:48:27.218Z,49.36
2023-02-11T21:50:54.445Z,49.10
2023-02-11T21:53:21.363Z,49.33
2023-02-11T21:55:49.456Z,50.19
2023-02-11T21:58:16.320Z,51.62
2023-02-11T22:00:43.335Z,50.87
2023-02-11T22:03:11.114Z,52.25
2023-02-11T22:05:40.704Z,51.33
2023-02-11T22:08:09.353Z,51.51
2023-02-11T22:10:36.338Z,51.54
2023-02-11T22:13:03.297Z,51.74
2023-02-11T22:15:30.204Z,51.43
2023-02-11T22:17:57.127Z,51.66
2023-02-11T22:20:24.071Z,51.33
2023-02-11T22:22:51.082Z,51.63
2023-02-11T22:25:18.177Z,52.47
2023-02-11T22:27:45.083Z,53.26
2023-02-11T22:30:12.485Z,53.54
2023-02-11T22:32:40.415Z,52.56
2023-02-11T22:35:07.302Z,51.93
2023-02-11T22:37:34.206Z,51.83
2023-02-11T22:40:03.230Z,52.24
2023-02-11T22:42:30.166Z,52.42
2023-02-11T22:44:56.968Z,52.63
2023-02-11T22:47:23.814Z,53.44
2023-02-11T22:49:50.716Z,54.89
2023-02-11T22:52:17.867Z,54.87
2023-02-11T22:54:44.775Z,54.42
2023-02-11T22:57:11.639Z,55.60
2023-02-11T22:59:38.494Z,56.55
2023-02-11T23:02:05.550Z,57.17
2023-02-11T23:04:32.573Z,58.06
2023-02-11T23:06:59.461Z,58.61
2023-02-11T23:09:26.341Z,59.42
2023-02-11T23:11:54.589Z,61.76
2023-02-11T23:14:21.951Z,59.25
2023-02-11T23:16:51.534Z,57.88
2023-02-11T23:19:18.885Z,56.96
2023-02-11T23:21:45.853Z,58.44
2023-02-11T23:24:14.565Z,57.95
2023-02-11T23:26:42.999Z,58.30
2023-02-11T23:29:10.992Z,58.49
2023-02-11T23:31:40.544Z,57.98
2023-02-11T23:34:08.562Z,56.89
2023-02-11T23:36:35.814Z,57.43
2023-02-11T23:39:03.289Z,57.63
2023-02-11T23:41:30.136Z,59.79
2023-02-11T23:43:58.219Z,59.07
2023-02-11T23:46:27.081Z,58.17
2023-02-11T23:48:54.176Z,60.35
2023-02-11T23:51:21.584Z,59.55
2023-02-11T23:53:52.782Z,58.09
2023-02-11T23:56:24.919Z,57.14
2023-02-11T23:58:53.847Z,57.28
